Time;durP1;ratioP1;P1;durP2;ratioP2;P2;SDS_P1;SDS_P2;PMS_P1;PMS_P2;Temp;Humidity;BMP_temperature;BMP_pressure;BME280_temperature;BME280_humidity;BME280_pressure;Samples;Min_cycle;Max_cycle;Signal;HPM_P1;HPM_P2
2022/09/10 00:00:57;;;;;;;;;;;;;;;;;;2132912;27;20411;-45
2022/09/10 00:01:58;;;;;;;;;;;;;;;;;;2132831;27;20298;-44
2022/09/10 00:02:59;;;;;;;;;;;;;;;;;;2132928;27;19975;-44
2022/09/10 00:04:00;;;;;;;;;;;;;;;;;;2133069;27;19927;-44
2022/09/10 00:05:01;;;;;;;;;;;;;;;;;;2132837;27;20018;-44
2022/09/10 00:06:02;;;;;;;;;;;;;;;;;;2133019;27;19946;-44
2022/09/10 00:07:03;;;;;;;;;;;;;;;;;;2133130;27;20364;-42
2022/09/10 00:08:05;;;;;;;;;;;;;;;;;;2132768;27;19924;-42
2022/09/10 00:09:05;;;;;;;;;;;;;;;;;;2132876;27;19927;-42
2022/09/10 00:10:07;;;;;;;;;;;;;;;;;;2132760;27;20060;-42
2022/09/10 00:11:08;;;;;;;;;;;;;;;;;;2130937;27;19983;-42
2022/09/10 00:12:09;;;;;;;;;;;;;;;;;;2123586;27;19943;-42
2022/09/10 00:13:10;;;;;;;;;;;;;;;;;;2124258;28;19938;-42
2022/09/10 00:14:12;;;;;;;;;;;;;;;;;;2124201;28;20045;-42
2022/09/10 00:15:13;;;;;;;;;;;;;;;;;;2124215;28;20368;-42
2022/09/10 00:16:13;;;;;;;;;;;;;;;;;;2124268;27;19971;-42
2022/09/10 00:17:14;;;;;;;;;;;;;;;;;;2124312;28;20019;-42
2022/09/10 00:18:15;;;;;;;;;;;;;;;;;;2130428;27;19931;-41
2022/09/10 00:19:16;;;;;;;;;;;;;;;;;;2132782;27;20273;-42
2022/09/10 00:20:17;;;;;;;;;;;;;;;;;;2132895;27;20331;-43
2022/09/10 00:21:18;;;;;;;;;;;;;;;;;;2132655;27;19923;-42
2022/09/10 00:22:21;;;;;;;;;;;;;;;;;;2132683;27;19923;-42
2022/09/10 00:23:22;;;;;;;;;;;;;;;;;;2132773;27;19930;-43
2022/09/10 00:24:24;;;;;;;;;;;;;;;;;;2132600;27;19924;-42
2022/09/10 00:25:24;;;;;;;;;;;;;;;;;;2132652;27;19977;-42
2022/09/10 00:26:26;;;;;;;;;;;;;;;;;;2132659;27;19937;-43
2022/09/10 00:27:26;;;;;;;;;;;;;;;;;;2132865;27;19924;-42
2022/09/10 00:28:27;;;;;;;;;;;;;;;;;;2132669;27;20495;-42
2022/09/10 00:29:28;;;;;;;;;;;;;;;;;;2132830;27;19923;-42
2022/09/10 00:30:29;;;;;;;;;;;;;;;;;;2132659;27;19969;-42
2022/09/10 00:31:30;;;;;;;;;;;;;;;;;;2132601;27;19923;-42
2022/09/10 00:32:31;;;;;;;;;;;;;;;;;;2132750;27;20013;-42
2022/09/10 00:33:32;;;;;;;;;;;;;;;;;;2133058;27;19923;-42
2022/09/10 00:34:33;;;;;;;;;;;;;;;;;;2132631;27;19930;-42
2022/09/10 00:35:34;;;;;;;;;;;;;;;;;;2132686;27;20376;-42
2022/09/10 00:36:35;;;;;;;;;;;;;;;;;;2132449;27;19930;-42
2022/09/10 00:37:36;;;;;;;;;;;;;;;;;;2132803;27;19938;-43
2022/09/10 00:38:37;;;;;;;;;;;;;;;;;;2133026;27;20355;-43
2022/09/10 00:39:38;;;;;;;;;;;;;;;;;;2132874;27;19926;-42
2022/09/10 00:40:39;;;;;;;;;;;;;;;;;;2132952;27;19923;-43
2022/09/10 00:41:39;;;;;;;;;;;;;;;;;;2132540;27;19970;-43
2022/09/10 00:42:42;;;;;;;;;;;;;;;;;;2132829;27;19927;-43
2022/09/10 00:43:43;;;;;;;;;;;;;;;;;;2132609;27;19990;-42
2022/09/10 00:44:44;;;;;;;;;;;;;;;;;;2132767;27;19966;-42
2022/09/10 00:45:44;;;;;;;;;;;;;;;;;;2132725;27;19928;-42
2022/09/10 00:46:46;;;;;;;;;;;;;;;;;;2132599;27;19970;-42
2022/09/10 00:47:49;;;;;;;;;;;;;;;;;;2132538;27;20399;-42
2022/09/10 00:48:51;;;;;;;;;;;;;;;;;;2132695;27;19923;-42
2022/09/10 00:49:52;;;;;;;;;;;;;;;;;;2132716;27;19979;-42
2022/09/10 00:50:53;;;;;;;;;;;;;;;;;;2132524;27;19966;-42
2022/09/10 00:51:54;;;;;;;;;;;;;;;;;;2132634;27;19934;-43
2022/09/10 00:52:55;;;;;;;;;;;;;;;;;;2132548;27;19934;-42
2022/09/10 00:53:56;;;;;;;;;;;;;;;;;;2132584;27;19923;-42
2022/09/10 00:54:57;;;;;;;;;;;;;;;;;;2132556;27;19931;-42
2022/09/10 00:55:58;;;;;;;;;;;;;;;;;;2132533;27;19955;-42
2022/09/10 00:56:59;;;;;;;;;;;;;;;;;;2132684;27;19923;-43
2022/09/10 00:58:00;;;;;;;;;;;;;;;;;;2132699;27;19923;-44
2022/09/10 00:59:01;;;;;;;;;;;;;;;;;;2132443;27;19980;-44
2022/09/10 01:00:02;;;;;;;;;;;;;;;;;;2132649;27;19975;-44
2022/09/10 01:01:03;;;;;;;;;;;;;;;;;;2132552;27;19967;-44
2022/09/10 01:02:04;;;;;;;;;;;;;;;;;;2132347;27;19923;-44
2022/09/10 01:03:05;;;;;;;;;;;;;;;;;;2132480;27;19931;-47
2022/09/10 01:04:05;;;;;;;;;;;;;;;;;;2132501;27;20415;-45
2022/09/10 01:05:07;;;;;;;;;;;;;;;;;;2132602;27;20018;-44
2022/09/10 01:06:09;;;;;;;;;;;;;;;;;;2132462;27;20013;-44
2022/09/10 01:07:10;;;;;;;;;;;;;;;;;;2132550;27;19923;-44
2022/09/10 01:08:11;;;;;;;;;;;;;;;;;;2132390;27;19976;-44
2022/09/10 01:09:12;;;;;;;;;;;;;;;;;;2132586;27;19970;-44
2022/09/10 01:10:12;;;;;;;;;;;;;;;;;;2132617;27;20320;-44
2022/09/10 01:11:13;;;;;;;;;;;;;;;;;;2132128;27;19923;-45
2022/09/10 01:12:14;;;;;;;;;;;;;;;;;;2132583;27;20014;-44
2022/09/10 01:13:15;;;;;;;;;;;;;;;;;;2132444;27;19930;-45
2022/09/10 01:14:16;;;;;;;;;;;;;;;;;;2132403;27;19930;-45
2022/09/10 01:15:17;;;;;;;;;;;;;;;;;;2132464;27;20019;-45
2022/09/10 01:16:18;;;;;;;;;;;;;;;;;;2132442;27;19924;-44
2022/09/10 01:17:19;;;;;;;;;;;;;;;;;;2132304;27;19962;-45
2022/09/10 01:18:19;;;;;;;;;;;;;;;;;;2132313;27;19923;-44
2022/09/10 01:19:20;;;;;;;;;;;;;;;;;;2132516;27;19974;-45
2022/09/10 01:20:21;;;;;;;;;;;;;;;;;;2132205;27;19927;-44
2022/09/10 01:21:22;;;;;;;;;;;;;;;;;;2132480;27;19923;-45
2022/09/10 01:22:23;;;;;;;;;;;;;;;;;;2132212;27;20009;-45
2022/09/10 01:23:23;;;;;;;;;;;;;;;;;;2132190;27;19927;-45
2022/09/10 01:24:24;;;;;;;;;;;;;;;;;;2132380;27;19975;-45
2022/09/10 01:25:25;;;;;;;;;;;;;;;;;;2132470;27;20287;-45
2022/09/10 01:26:26;;;;;;;;;;;;;;;;;;2132181;27;20034;-45
2022/09/10 01:27:27;;;;;;;;;;;;;;;;;;2132346;27;19923;-46
2022/09/10 01:28:28;;;;;;;;;;;;;;;;;;2132459;27;19946;-45
2022/09/10 01:29:28;;;;;;;;;;;;;;;;;;2132428;27;19930;-44
2022/09/10 01:30:29;;;;;;;;;;;;;;;;;;2132282;27;19980;-45
2022/09/10 01:31:30;;;;;;;;;;;;;;;;;;2132248;27;19975;-45
2022/09/10 01:32:31;;;;;;;;;;;;;;;;;;2132270;27;20025;-46
2022/09/10 01:33:32;;;;;;;;;;;;;;;;;;2132323;27;19923;-45
2022/09/10 01:34:33;;;;;;;;;;;;;;;;;;2132420;27;20322;-46
2022/09/10 01:35:35;;;;;;;;;;;;;;;;;;2132241;27;19942;-45
2022/09/10 01:36:37;;;;;;;;;;;;;;;;;;2132080;27;19927;-45
2022/09/10 01:37:38;;;;;;;;;;;;;;;;;;2132263;27;20325;-44
2022/09/10 01:38:40;;;;;;;;;;;;;;;;;;2132301;27;19927;-43
2022/09/10 01:39:41;;;;;;;;;;;;;;;;;;2132200;27;20433;-43
2022/09/10 01:40:42;;;;;;;;;;;;;;;;;;2132234;27;19972;-43
2022/09/10 01:41:43;;;;;;;;;;;;;;;;;;2132266;27;20010;-43
2022/09/10 01:42:44;;;;;;;;;;;;;;;;;;2132180;27;20029;-43
2022/09/10 01:43:45;;;;;;;;;;;;;;;;;;2132337;27;19934;-44
2022/09/10 01:44:46;;;;;;;;;;;;;;;;;;2132364;27;19923;-44
2022/09/10 01:45:47;;;;;;;;;;;;;;;;;;2132333;27;19950;-45
2022/09/10 01:46:48;;;;;;;;;;;;;;;;;;2132018;27;20018;-44
2022/09/10 01:47:50;;;;;;;;;;;;;;;;;;2132191;27;20014;-44
2022/09/10 01:48:52;;;;;;;;;;;;;;;;;;2132228;27;19960;-44
2022/09/10 01:49:55;;;;;;;;;;;;;;;;;;2132271;27;19923;-45
2022/09/10 01:50:56;;;;;;;;;;;;;;;;;;2132199;27;19923;-44
2022/09/10 01:51:56;;;;;;;;;;;;;;;;;;2132251;27;19930;-44
2022/09/10 01:52:57;;;;;;;;;;;;;;;;;;2132107;27;19922;-44
2022/09/10 01:53:59;;;;;;;;;;;;;;;;;;2132128;27;19960;-44
2022/09/10 01:54:59;;;;;;;;;;;;;;;;;;2132338;27;19923;-44
2022/09/10 01:56:01;;;;;;;;;;;;;;;;;;2132106;27;20325;-44
2022/09/10 01:57:02;;;;;;;;;;;;;;;;;;2132104;27;19939;-44
2022/09/10 01:58:03;;;;;;;;;;;;;;;;;;2132114;27;19927;-44
2022/09/10 01:59:04;;;;;;;;;;;;;;;;;;2132085;27;19952;-43
2022/09/10 02:00:05;;;;;;;;;;;;;;;;;;2132066;27;19961;-44
2022/09/10 02:01:06;;;;;;;;;;;;;;;;;;2132202;27;19934;-43
2022/09/10 02:02:07;;;;;;;;;;;;;;;;;;2131948;27;19931;-45
2022/09/10 02:03:10;;;;;;;;;;;;;;;;;;2132252;27;19923;-46
2022/09/10 02:04:13;;;;;;;;;;;;;;;;;;2132206;27;19930;-45
2022/09/10 02:05:14;;;;;;;;;;;;;;;;;;2132019;27;19930;-46
2022/09/10 02:06:14;;;;;;;;;;;;;;;;;;2131995;27;20022;-43
2022/09/10 02:07:15;;;;;;;;;;;;;;;;;;2132108;27;19923;-43
2022/09/10 02:08:16;;;;;;;;;;;;;;;;;;2132153;27;20300;-44
2022/09/10 02:09:17;;;;;;;;;;;;;;;;;;2132024;27;20488;-44
2022/09/10 02:10:18;;;;;;;;;;;;;;;;;;2132164;27;19930;-44
2022/09/10 02:11:20;;;;;;;;;;;;;;;;;;2131838;27;19941;-44
2022/09/10 02:12:20;;;;;;;;;;;;;;;;;;2132199;27;19930;-44
2022/09/10 02:13:21;;;;;;;;;;;;;;;;;;2132005;27;20022;-45
2022/09/10 02:14:22;;;;;;;;;;;;;;;;;;2132106;27;20282;-44
2022/09/10 02:15:23;;;;;;;;;;;;;;;;;;2132100;27;19952;-44
2022/09/10 02:16:24;;;;;;;;;;;;;;;;;;2131673;27;20367;-44
2022/09/10 02:17:25;;;;;;;;;;;;;;;;;;2132029;27;19991;-45
2022/09/10 02:18:26;;;;;;;;;;;;;;;;;;2131991;27;20390;-44
2022/09/10 02:19:27;;;;;;;;;;;;;;;;;;2132101;27;19930;-44
2022/09/10 02:20:29;;;;;;;;;;;;;;;;;;2131913;27;20039;-44
2022/09/10 02:21:30;;;;;;;;;;;;;;;;;;2131901;27;19930;-45
2022/09/10 02:22:31;;;;;;;;;;;;;;;;;;2132086;27;19923;-44
2022/09/10 02:23:32;;;;;;;;;;;;;;;;;;2131992;27;19975;-45
2022/09/10 02:24:33;;;;;;;;;;;;;;;;;;2132086;27;19929;-44
2022/09/10 02:25:34;;;;;;;;;;;;;;;;;;2132302;27;19946;-44
2022/09/10 02:26:35;;;;;;;;;;;;;;;;;;2131983;27;20032;-44
2022/09/10 02:27:37;;;;;;;;;;;;;;;;;;2131887;27;20303;-45
2022/09/10 02:28:37;;;;;;;;;;;;;;;;;;2132070;27;19927;-45
2022/09/10 02:29:38;;;;;;;;;;;;;;;;;;2131937;27;19923;-45
2022/09/10 02:30:39;;;;;;;;;;;;;;;;;;2131948;27;19966;-45
2022/09/10 02:31:40;;;;;;;;;;;;;;;;;;2131884;27;19923;-44
2022/09/10 02:32:41;;;;;;;;;;;;;;;;;;2131897;27;19995;-44
2022/09/10 02:33:42;;;;;;;;;;;;;;;;;;2132086;27;19965;-43
2022/09/10 02:34:43;;;;;;;;;;;;;;;;;;2131066;27;19930;-42
2022/09/10 02:35:46;;;;;;;;;;;;;;;;;;2131984;27;19923;-43
2022/09/10 02:36:48;;;;;;;;;;;;;;;;;;2131424;27;19931;-44
2022/09/10 02:37:49;;;;;;;;;;;;;;;;;;2131148;27;19923;-45
2022/09/10 02:38:50;;;;;;;;;;;;;;;;;;2131075;27;20289;-43
2022/09/10 02:39:51;;;;;;;;;;;;;;;;;;2131334;27;19923;-45
2022/09/10 02:40:52;;;;;;;;;;;;;;;;;;2130788;27;19927;-43
2022/09/10 02:41:52;;;;;;;;;;;;;;;;;;2131039;27;19923;-45
2022/09/10 02:42:54;;;;;;;;;;;;;;;;;;2131520;27;19927;-43
2022/09/10 02:43:55;;;;;;;;;;;;;;;;;;2131558;27;19927;-44
2022/09/10 02:44:56;;;;;;;;;;;;;;;;;;2131612;27;19929;-43
2022/09/10 02:45:56;;;;;;;;;;;;;;;;;;2131701;27;20395;-45
2022/09/10 02:46:57;;;;;;;;;;;;;;;;;;2131429;27;19991;-43
2022/09/10 02:47:59;;;;;;;;;;;;;;;;;;2131488;27;19923;-43
2022/09/10 02:48:59;;;;;;;;;;;;;;;;;;2131621;27;20422;-45
2022/09/10 02:50:01;;;;;;;;;;;;;;;;;;2131693;27;19923;-44
2022/09/10 02:51:01;;;;;;;;;;;;;;;;;;2131679;27;19996;-45
2022/09/10 02:52:02;;;;;;;;;;;;;;;;;;2131505;27;20531;-43
2022/09/10 02:53:03;;;;;;;;;;;;;;;;;;2131565;27;20241;-43
2022/09/10 02:54:04;;;;;;;;;;;;;;;;;;2131584;27;19923;-43
2022/09/10 02:55:05;;;;;;;;;;;;;;;;;;2131742;27;20376;-45
2022/09/10 02:56:06;;;;;;;;;;;;;;;;;;2131611;27;19966;-44
2022/09/10 02:57:07;;;;;;;;;;;;;;;;;;2131448;27;20372;-43
2022/09/10 02:58:08;;;;;;;;;;;;;;;;;;2131677;27;19963;-43
2022/09/10 02:59:08;;;;;;;;;;;;;;;;;;2131520;27;20523;-44
2022/09/10 03:00:09;;;;;;;;;;;;;;;;;;2131477;27;19945;-44
2022/09/10 03:01:10;;;;;;;;;;;;;;;;;;2131413;27;20021;-43
2022/09/10 03:02:11;;;;;;;;;;;;;;;;;;2131356;27;19930;-43
2022/09/10 03:03:12;;;;;;;;;;;;;;;;;;2131616;27;19930;-45
2022/09/10 03:04:13;;;;;;;;;;;;;;;;;;2131453;27;20279;-43
2022/09/10 03:05:13;;;;;;;;;;;;;;;;;;2131410;27;20017;-45
2022/09/10 03:06:14;;;;;;;;;;;;;;;;;;2131467;27;19963;-44
2022/09/10 03:07:18;;;;;;;;;;;;;;;;;;2131614;27;20265;-44
2022/09/10 03:08:19;;;;;;;;;;;;;;;;;;2131608;27;19923;-45
2022/09/10 03:09:20;;;;;;;;;;;;;;;;;;2131762;27;19945;-44
2022/09/10 03:10:22;;;;;;;;;;;;;;;;;;2131375;27;19971;-45
2022/09/10 03:11:23;;;;;;;;;;;;;;;;;;2126296;27;19923;-43
2022/09/10 03:12:24;;;;;;;;;;;;;;;;;;2122859;28;19923;-43
2022/09/10 03:13:26;;;;;;;;;;;;;;;;;;2130575;27;19927;-44
2022/09/10 03:14:29;;;;;;;;;;;;;;;;;;2131457;27;19923;-43
2022/09/10 03:15:29;;;;;;;;;;;;;;;;;;2131430;27;20409;-43
2022/09/10 03:16:30;;;;;;;;;;;;;;;;;;2131448;27;19923;-43
2022/09/10 03:17:31;;;;;;;;;;;;;;;;;;2131456;27;19958;-43
2022/09/10 03:18:33;;;;;;;;;;;;;;;;;;2131294;27;20409;-45
2022/09/10 03:19:34;;;;;;;;;;;;;;;;;;2131535;27;20065;-45
2022/09/10 03:20:35;;;;;;;;;;;;;;;;;;2131374;27;20528;-43
2022/09/10 03:21:36;;;;;;;;;;;;;;;;;;2131273;27;20265;-43
2022/09/10 03:22:37;;;;;;;;;;;;;;;;;;2131311;27;19923;-45
2022/09/10 03:23:39;;;;;;;;;;;;;;;;;;2131361;27;19923;-43
2022/09/10 03:24:41;;;;;;;;;;;;;;;;;;2131389;27;20459;-44
2022/09/10 03:25:42;;;;;;;;;;;;;;;;;;2131399;27;19929;-44
2022/09/10 03:26:46;;;;;;;;;;;;;;;;;;2131557;27;19954;-44
2022/09/10 03:27:47;;;;;;;;;;;;;;;;;;2131404;27;19923;-43
2022/09/10 03:28:48;;;;;;;;;;;;;;;;;;2131385;27;20032;-44
2022/09/10 03:29:49;;;;;;;;;;;;;;;;;;2131342;27;19976;-43
2022/09/10 03:30:50;;;;;;;;;;;;;;;;;;2131433;27;19975;-43
2022/09/10 03:31:51;;;;;;;;;;;;;;;;;;2125827;27;20284;-43
2022/09/10 03:32:53;;;;;;;;;;;;;;;;;;2122735;28;19963;-45
2022/09/10 03:33:54;;;;;;;;;;;;;;;;;;2122811;28;19983;-44
2022/09/10 03:34:55;;;;;;;;;;;;;;;;;;2122688;28;19931;-42
2022/09/10 03:35:55;;;;;;;;;;;;;;;;;;2122816;28;19927;-45
2022/09/10 03:36:56;;;;;;;;;;;;;;;;;;2122593;28;20394;-44
2022/09/10 03:37:57;;;;;;;;;;;;;;;;;;2122774;28;19977;-43
2022/09/10 03:38:58;;;;;;;;;;;;;;;;;;2122812;28;19955;-44
2022/09/10 03:39:59;;;;;;;;;;;;;;;;;;2122806;28;19992;-44
2022/09/10 03:41:01;;;;;;;;;;;;;;;;;;2122790;28;20021;-45
2022/09/10 03:42:04;;;;;;;;;;;;;;;;;;2122733;28;20387;-45
2022/09/10 03:43:05;;;;;;;;;;;;;;;;;;2122737;28;19923;-44
2022/09/10 03:44:05;;;;;;;;;;;;;;;;;;2122603;28;19956;-43
2022/09/10 03:45:06;;;;;;;;;;;;;;;;;;2122802;28;19984;-43
2022/09/10 03:46:07;;;;;;;;;;;;;;;;;;2123539;27;19966;-43
2022/09/10 03:47:08;;;;;;;;;;;;;;;;;;2124054;28;20064;-44
2022/09/10 03:48:09;;;;;;;;;;;;;;;;;;2124223;28;19924;-45
2022/09/10 03:49:10;;;;;;;;;;;;;;;;;;2124334;28;19923;-44
2022/09/10 03:50:11;;;;;;;;;;;;;;;;;;2126695;27;19930;-46
2022/09/10 03:51:12;;;;;;;;;;;;;;;;;;2128412;27;19923;-44
2022/09/10 03:52:13;;;;;;;;;;;;;;;;;;2127766;27;20334;-44
2022/09/10 03:53:14;;;;;;;;;;;;;;;;;;2129187;27;19923;-44
2022/09/10 03:54:14;;;;;;;;;;;;;;;;;;2133192;27;20019;-45
2022/09/10 03:55:16;;;;;;;;;;;;;;;;;;2132903;27;19927;-43
2022/09/10 03:56:18;;;;;;;;;;;;;;;;;;2133195;27;19926;-46
2022/09/10 03:57:19;;;;;;;;;;;;;;;;;;2132936;27;19976;-46
2022/09/10 03:58:20;;;;;;;;;;;;;;;;;;2133317;27;20062;-46
2022/09/10 03:59:21;;;;;;;;;;;;;;;;;;2133504;27;19974;-46
2022/09/10 04:00:22;;;;;;;;;;;;;;;;;;2133156;27;19942;-44
2022/09/10 04:01:23;;;;;;;;;;;;;;;;;;2132897;27;19923;-43
2022/09/10 04:02:25;;;;;;;;;;;;;;;;;;2133046;27;19923;-44
2022/09/10 04:03:26;;;;;;;;;;;;;;;;;;2133138;27;19971;-42
2022/09/10 04:04:28;;;;;;;;;;;;;;;;;;2133086;27;20393;-42
2022/09/10 04:05:29;;;;;;;;;;;;;;;;;;2133094;27;20002;-43
2022/09/10 04:06:31;;;;;;;;;;;;;;;;;;2132864;27;19923;-43
2022/09/10 04:07:32;;;;;;;;;;;;;;;;;;2132920;27;19924;-42
2022/09/10 04:08:33;;;;;;;;;;;;;;;;;;2132808;27;19923;-43
2022/09/10 04:09:34;;;;;;;;;;;;;;;;;;2132922;27;19929;-43
2022/09/10 04:10:35;;;;;;;;;;;;;;;;;;2133236;27;19923;-44
2022/09/10 04:11:36;;;;;;;;;;;;;;;;;;2127594;27;19928;-42
2022/09/10 04:12:37;;;;;;;;;;;;;;;;;;2124252;28;20007;-42
2022/09/10 04:13:38;;;;;;;;;;;;;;;;;;2124610;28;19978;-47
2022/09/10 04:14:38;;;;;;;;;;;;;;;;;;2124738;28;19972;-43
2022/09/10 04:15:40;;;;;;;;;;;;;;;;;;2124407;28;20085;-45
2022/09/10 04:16:41;;;;;;;;;;;;;;;;;;2124325;27;19928;-45
2022/09/10 04:17:41;;;;;;;;;;;;;;;;;;2124347;28;19954;-43
2022/09/10 04:18:42;;;;;;;;;;;;;;;;;;2126582;27;19923;-43
2022/09/10 04:19:43;;;;;;;;;;;;;;;;;;2131204;27;19924;-44
2022/09/10 04:20:44;;;;;;;;;;;;;;;;;;2128298;27;20428;-44
2022/09/10 04:21:45;;;;;;;;;;;;;;;;;;2129548;27;19923;-44
2022/09/10 04:22:46;;;;;;;;;;;;;;;;;;2128018;27;19927;-47
2022/09/10 04:23:46;;;;;;;;;;;;;;;;;;2124325;28;19931;-46
2022/09/10 04:24:47;;;;;;;;;;;;;;;;;;2124183;28;20014;-45
2022/09/10 04:25:48;;;;;;;;;;;;;;;;;;2124308;28;19924;-44
2022/09/10 04:26:49;;;;;;;;;;;;;;;;;;2124148;27;19930;-46
2022/09/10 04:27:50;;;;;;;;;;;;;;;;;;2124528;28;20005;-42
2022/09/10 04:28:51;;;;;;;;;;;;;;;;;;2124163;28;19923;-42
2022/09/10 04:29:52;;;;;;;;;;;;;;;;;;2124516;28;19954;-43
2022/09/10 04:30:52;;;;;;;;;;;;;;;;;;2124120;28;19927;-43
2022/09/10 04:31:54;;;;;;;;;;;;;;;;;;2125207;27;20411;-45
2022/09/10 04:32:55;;;;;;;;;;;;;;;;;;2124107;28;19963;-46
2022/09/10 04:33:55;;;;;;;;;;;;;;;;;;2124459;28;20340;-46
2022/09/10 04:34:57;;;;;;;;;;;;;;;;;;2124111;28;19924;-45
2022/09/10 04:35:59;;;;;;;;;;;;;;;;;;2124036;28;19923;-45
2022/09/10 04:37:00;;;;;;;;;;;;;;;;;;2124137;27;19930;-46
2022/09/10 04:38:01;;;;;;;;;;;;;;;;;;2124719;28;19923;-46
2022/09/10 04:39:02;;;;;;;;;;;;;;;;;;2124209;28;20018;-45
2022/09/10 04:40:03;;;;;;;;;;;;;;;;;;2124132;28;20451;-45
2022/09/10 04:41:04;;;;;;;;;;;;;;;;;;2124237;28;19924;-47
2022/09/10 04:42:08;;;;;;;;;;;;;;;;;;2124154;27;20463;-42
2022/09/10 04:43:09;;;;;;;;;;;;;;;;;;2124091;28;20376;-43
2022/09/10 04:44:10;;;;;;;;;;;;;;;;;;2124365;28;19923;-44
2022/09/10 04:45:11;;;;;;;;;;;;;;;;;;2124250;28;19962;-45
2022/09/10 04:46:12;;;;;;;;;;;;;;;;;;2124210;28;19923;-45
2022/09/10 04:47:13;;;;;;;;;;;;;;;;;;2124064;28;19923;-46
2022/09/10 04:48:14;;;;;;;;;;;;;;;;;;2124108;28;19976;-46
2022/09/10 04:49:15;;;;;;;;;;;;;;;;;;2124113;28;19930;-45
2022/09/10 04:50:16;;;;;;;;;;;;;;;;;;2124140;28;20018;-46
2022/09/10 04:51:16;;;;;;;;;;;;;;;;;;2124003;27;20398;-45
2022/09/10 04:52:21;;;;;;;;;;;;;;;;;;2124205;28;19923;-45
2022/09/10 04:53:22;;;;;;;;;;;;;;;;;;2124277;28;19930;-46
2022/09/10 04:54:23;;;;;;;;;;;;;;;;;;2124208;28;20018;-43
2022/09/10 04:55:24;;;;;;;;;;;;;;;;;;2124215;28;19973;-45
2022/09/10 04:56:25;;;;;;;;;;;;;;;;;;2124046;27;19932;-47
2022/09/10 04:57:26;;;;;;;;;;;;;;;;;;2123493;27;19930;-45
2022/09/10 04:58:27;;;;;;;;;;;;;;;;;;2123842;28;19924;-44
2022/09/10 04:59:28;;;;;;;;;;;;;;;;;;2124193;28;19993;-44
2022/09/10 05:00:29;;;;;;;;;;;;;;;;;;2123992;28;19923;-42
2022/09/10 05:01:30;;;;;;;;;;;;;;;;;;2124283;27;20317;-43
2022/09/10 05:02:32;;;;;;;;;;;;;;;;;;2124002;28;20491;-42
2022/09/10 05:03:32;;;;;;;;;;;;;;;;;;2125862;27;20279;-42
2022/09/10 05:04:33;;;;;;;;;;;;;;;;;;2132825;27;19923;-47
2022/09/10 05:05:34;;;;;;;;;;;;;;;;;;2132628;27;19923;-45
2022/09/10 05:06:35;;;;;;;;;;;;;;;;;;2132548;27;20328;-45
2022/09/10 05:07:36;;;;;;;;;;;;;;;;;;2132819;27;19931;-46
2022/09/10 05:08:37;;;;;;;;;;;;;;;;;;2132704;27;19927;-45
2022/09/10 05:09:38;;;;;;;;;;;;;;;;;;2132487;27;20063;-47
2022/09/10 05:10:39;;;;;;;;;;;;;;;;;;2132441;27;20025;-45
2022/09/10 05:11:40;;;;;;;;;;;;;;;;;;2132205;27;19923;-44
2022/09/10 05:12:41;;;;;;;;;;;;;;;;;;2132632;27;19929;-45
2022/09/10 05:13:42;;;;;;;;;;;;;;;;;;2132485;27;20292;-44
2022/09/10 05:14:43;;;;;;;;;;;;;;;;;;2132505;27;19930;-43
2022/09/10 05:15:44;;;;;;;;;;;;;;;;;;2132905;27;19930;-42
2022/09/10 05:16:45;;;;;;;;;;;;;;;;;;2132803;27;19927;-43
2022/09/10 05:17:47;;;;;;;;;;;;;;;;;;2132371;27;19923;-45
2022/09/10 05:18:48;;;;;;;;;;;;;;;;;;2132827;27;19930;-45
2022/09/10 05:19:48;;;;;;;;;;;;;;;;;;2132764;27;19923;-46
2022/09/10 05:20:49;;;;;;;;;;;;;;;;;;2132571;27;19923;-46
2022/09/10 05:21:50;;;;;;;;;;;;;;;;;;2132699;27;20019;-46
2022/09/10 05:22:51;;;;;;;;;;;;;;;;;;2132590;27;19923;-46
2022/09/10 05:23:52;;;;;;;;;;;;;;;;;;2132509;27;19931;-46
2022/09/10 05:24:54;;;;;;;;;;;;;;;;;;2132400;27;19946;-44
2022/09/10 05:25:55;;;;;;;;;;;;;;;;;;2132609;27;20283;-45
2022/09/10 05:26:56;;;;;;;;;;;;;;;;;;2133186;27;19927;-45
2022/09/10 05:27:57;;;;;;;;;;;;;;;;;;2132693;27;20432;-46
2022/09/10 05:28:59;;;;;;;;;;;;;;;;;;2132505;27;19923;-46
2022/09/10 05:30:00;;;;;;;;;;;;;;;;;;2132852;27;19931;-45
2022/09/10 05:31:01;;;;;;;;;;;;;;;;;;2132454;27;19924;-45
2022/09/10 05:32:02;;;;;;;;;;;;;;;;;;2132637;27;19923;-43
2022/09/10 05:33:03;;;;;;;;;;;;;;;;;;2132334;27;20428;-43
2022/09/10 05:34:04;;;;;;;;;;;;;;;;;;2132382;27;19979;-43
2022/09/10 05:35:05;;;;;;;;;;;;;;;;;;2132661;27;20336;-45
2022/09/10 05:36:08;;;;;;;;;;;;;;;;;;2132210;27;19976;-45
2022/09/10 05:37:10;;;;;;;;;;;;;;;;;;2132251;27;19923;-45
2022/09/10 05:38:11;;;;;;;;;;;;;;;;;;2132437;27;19923;-45
2022/09/10 05:39:14;;;;;;;;;;;;;;;;;;2132315;27;20156;-47
2022/09/10 05:40:15;;;;;;;;;;;;;;;;;;2132415;27;20333;-46
2022/09/10 05:41:16;;;;;;;;;;;;;;;;;;2132152;27;19927;-46
2022/09/10 05:42:17;;;;;;;;;;;;;;;;;;2132789;27;20337;-42
2022/09/10 05:43:18;;;;;;;;;;;;;;;;;;2132744;27;20382;-43
2022/09/10 05:44:19;;;;;;;;;;;;;;;;;;2132387;27;20005;-43
2022/09/10 05:45:20;;;;;;;;;;;;;;;;;;2132396;27;19923;-42
2022/09/10 05:46:21;;;;;;;;;;;;;;;;;;2132118;27;19929;-42
2022/09/10 05:47:22;;;;;;;;;;;;;;;;;;2132191;27;19923;-42
2022/09/10 05:48:23;;;;;;;;;;;;;;;;;;2132577;27;19923;-42
2022/09/10 05:49:24;;;;;;;;;;;;;;;;;;2132298;27;20290;-42
2022/09/10 05:50:24;;;;;;;;;;;;;;;;;;2132302;27;19974;-43
2022/09/10 05:51:28;;;;;;;;;;;;;;;;;;2132131;27;19933;-42
2022/09/10 05:52:29;;;;;;;;;;;;;;;;;;2132336;27;19986;-42
2022/09/10 05:53:32;;;;;;;;;;;;;;;;;;2132423;27;19923;-42
2022/09/10 05:54:33;;;;;;;;;;;;;;;;;;2132160;27;19989;-42
2022/09/10 05:55:34;;;;;;;;;;;;;;;;;;2132184;27;20352;-42
2022/09/10 05:56:34;;;;;;;;;;;;;;;;;;2132716;27;19949;-45
2022/09/10 05:57:35;;;;;;;;;;;;;;;;;;2132130;27;20503;-45
2022/09/10 05:58:36;;;;;;;;;;;;;;;;;;2132456;27;19927;-47
2022/09/10 05:59:37;;;;;;;;;;;;;;;;;;2132022;27;20331;-45
2022/09/10 06:00:38;;;;;;;;;;;;;;;;;;2132057;27;20222;-45
2022/09/10 06:01:39;;;;;;;;;;;;;;;;;;2132010;27;19931;-45
2022/09/10 06:02:40;;;;;;;;;;;;;;;;;;2132472;27;19935;-46
2022/09/10 06:03:41;;;;;;;;;;;;;;;;;;2132094;27;19966;-45
2022/09/10 06:04:42;;;;;;;;;;;;;;;;;;2132264;27;20017;-46
2022/09/10 06:05:43;;;;;;;;;;;;;;;;;;2132520;27;19923;-43
2022/09/10 06:06:44;;;;;;;;;;;;;;;;;;2132566;27;19930;-42
2022/09/10 06:07:45;;;;;;;;;;;;;;;;;;2132252;27;19946;-46
2022/09/10 06:08:46;;;;;;;;;;;;;;;;;;2132038;27;20000;-45
2022/09/10 06:09:47;;;;;;;;;;;;;;;;;;2131147;27;19923;-45
2022/09/10 06:10:47;;;;;;;;;;;;;;;;;;2132041;27;19924;-46
2022/09/10 06:11:48;;;;;;;;;;;;;;;;;;2132029;27;19924;-42
2022/09/10 06:12:50;;;;;;;;;;;;;;;;;;2132410;27;19938;-44
2022/09/10 06:13:52;;;;;;;;;;;;;;;;;;2132072;27;19968;-44
2022/09/10 06:14:52;;;;;;;;;;;;;;;;;;2132046;27;20081;-45
2022/09/10 06:15:53;;;;;;;;;;;;;;;;;;2132165;27;20359;-44
2022/09/10 06:16:54;;;;;;;;;;;;;;;;;;2132186;27;20010;-44
2022/09/10 06:17:56;;;;;;;;;;;;;;;;;;2131939;27;19934;-43
2022/09/10 06:18:58;;;;;;;;;;;;;;;;;;2132035;27;19927;-43
2022/09/10 06:19:59;;;;;;;;;;;;;;;;;;2131994;27;20229;-44
2022/09/10 06:21:00;;;;;;;;;;;;;;;;;;2132523;27;20328;-44
2022/09/10 06:22:01;;;;;;;;;;;;;;;;;;2132238;27;19950;-44
2022/09/10 06:23:02;;;;;;;;;;;;;;;;;;2132178;27;19983;-43
2022/09/10 06:24:03;;;;;;;;;;;;;;;;;;2131933;27;20260;-43
2022/09/10 06:25:04;;;;;;;;;;;;;;;;;;2132193;27;19923;-45
2022/09/10 06:26:05;;;;;;;;;;;;;;;;;;2131972;27;19940;-44
2022/09/10 06:27:06;;;;;;;;;;;;;;;;;;2132198;27;19939;-43
2022/09/10 06:28:07;;;;;;;;;;;;;;;;;;2131988;27;20469;-43
2022/09/10 06:29:07;;;;;;;;;;;;;;;;;;2132157;27;19975;-43
2022/09/10 06:30:08;;;;;;;;;;;;;;;;;;2132410;27;20352;-45
2022/09/10 06:31:13;;;;;;;;;;;;;;;;;;2132317;27;20010;-43
2022/09/10 06:32:13;;;;;;;;;;;;;;;;;;2132215;27;19927;-43
2022/09/10 06:33:15;;;;;;;;;;;;;;;;;;2132316;27;19923;-44
2022/09/10 06:34:17;;;;;;;;;;;;;;;;;;2132271;27;19972;-43
2022/09/10 06:35:18;;;;;;;;;;;;;;;;;;2131876;27;19967;-43
2022/09/10 06:36:19;;;;;;;;;;;;;;;;;;2131942;27;19927;-44
2022/09/10 06:37:20;;;;;;;;;;;;;;;;;;2131868;27;19923;-44
2022/09/10 06:38:21;;;;;;;;;;;;;;;;;;2132171;27;19939;-46
2022/09/10 06:39:22;;;;;;;;;;;;;;;;;;2131903;27;19962;-46
2022/09/10 06:40:26;;;;;;;;;;;;;;;;;;2132272;27;19927;-44
2022/09/10 06:41:29;;;;;;;;;;;;;;;;;;2131749;27;19930;-43
2022/09/10 06:42:31;;;;;;;;;;;;;;;;;;2132249;27;19923;-46
2022/09/10 06:43:32;;;;;;;;;;;;;;;;;;2131852;27;19929;-46
2022/09/10 06:44:32;;;;;;;;;;;;;;;;;;2131882;27;20386;-46
2022/09/10 06:45:33;;;;;;;;;;;;;;;;;;2132017;27;20018;-46
2022/09/10 06:46:34;;;;;;;;;;;;;;;;;;2131804;27;19930;-46
2022/09/10 06:47:57;;;;;;;;;;;;;;;;;;2131801;27;19945;-49
2022/09/10 06:49:18;;;;;;;;;;;;;;;;;;2131978;27;19927;-46
2022/09/10 06:50:19;;;;;;;;;;;;;;;;;;2131913;27;20432;-46
2022/09/10 06:51:20;;;;;;;;;;;;;;;;;;2131859;27;19963;-43
2022/09/10 06:52:21;;;;;;;;;;;;;;;;;;2131975;27;20323;-43
2022/09/10 06:53:22;;;;;;;;;;;;;;;;;;2132199;27;20390;-43
2022/09/10 06:54:24;;;;;;;;;;;;;;;;;;2131927;27;19930;-44
2022/09/10 06:55:25;;;;;;;;;;;;;;;;;;2131964;27;19952;-46
2022/09/10 06:56:26;;;;;;;;;;;;;;;;;;2131881;27;19986;-45
2022/09/10 06:57:28;;;;;;;;;;;;;;;;;;2131718;27;20325;-46
2022/09/10 06:58:29;;;;;;;;;;;;;;;;;;2131988;27;19930;-44